Alexandria, Tennessee
Current Conditions -  °F | °C
As of 4:53 PM on Tuesday 27 Jan 2015 (Local Time) from KBNA Reporting Station
Overcast Overcast  
Wind Chill: 32°   Ceiling: 2300
Heat Index: 39°   Visibility: 10mi
Dew Point: 30°   Wind: 10mph
Humidity: 70%   Direction: 340°NNW
Pressure: 30.15"   Gusts: NA
Location:  36.08°N, 86.03°W
Report Text: KBNA 272253Z 34009KT 10SM BKN023 OVC028 04/M01 A3015 RMK AO2 SLP214 T00391011
Loading
Personal Weather Stations






























Interactive Weather Map New forecast layout! Learn more

10-Day Weather Forecast

Advertisements
Track Severe Weather on mobile